Time;durP1;ratioP1;P1;durP2;ratioP2;P2;SDS_P1;SDS_P2;PMS_P1;PMS_P2;Temp;Humidity;BMP_temperature;BMP_pressure;BME280_temperature;BME280_humidity;BME280_pressure;Samples;Min_cycle;Max_cycle;Signal;HPM_P1;HPM_P2
2022/12/16 00:05:46;;;;;;;19.73;12.90;;;;;;;2.51;100.00;94045.84;6237843;23;20219;-92
2022/12/16 00:19:54;;;;;;;20.17;13.27;;;;;;;2.57;100.00;94044.41;6034872;23;20316;-91
2022/12/16 00:23:04;;;;;;;20.73;13.53;;;;;;;2.59;100.00;94050.13;6104292;23;20256;-91
2022/12/16 00:25:49;;;;;;;18.47;12.40;;;;;;;2.54;100.00;94045.53;6246210;23;20585;-90
2022/12/16 00:31:37;;;;;;;18.90;12.03;;;;;;;2.53;100.00;94049.00;6153261;23;20213;-91
2022/12/16 00:37:27;;;;;;;19.77;12.03;;;;;;;2.58;99.76;94051.06;6183024;23;20622;-92
2022/12/16 00:40:21;;;;;;;17.67;11.60;;;;;;;2.57;99.66;94046.94;6235766;23;20284;-90
2022/12/16 00:51:57;;;;;;;16.97;11.47;;;;;;;2.39;100.00;94049.72;6216261;23;20174;-91
2022/12/16 00:54:51;;;;;;;18.73;11.73;;;;;;;2.42;100.00;94057.81;6214810;23;20193;-92
2022/12/16 00:57:34;;;;;;;17.97;11.50;;;;;;;2.45;100.00;94054.16;6214270;23;20220;-92
2022/12/16 01:00:36;;;;;;;17.97;11.83;;;;;;;2.46;100.00;94053.19;6214256;23;20158;-92
2022/12/16 01:03:45;;;;;;;16.80;11.40;;;;;;;2.47;100.00;94064.94;6213812;23;20173;-91
2022/12/16 01:06:41;;;;;;;17.47;11.50;;;;;;;2.49;100.00;94068.09;6208698;23;20196;-92
2022/12/16 01:09:14;;;;;;;15.13;10.93;;;;;;;2.52;100.00;94079.66;6212703;23;20190;-91
2022/12/16 01:15:00;;;;;;;17.50;11.60;;;;;;;2.56;100.00;94091.88;6211173;23;20263;-92
2022/12/16 01:21:27;;;;;;;17.00;11.33;;;;;;;2.58;99.78;94094.25;6086527;23;20235;-91
2022/12/16 01:24:25;;;;;;;18.67;11.07;;;;;;;2.61;100.00;94093.94;6092102;23;20157;-91
2022/12/16 01:26:59;;;;;;;16.60;11.20;;;;;;;2.64;99.67;94099.47;6214260;23;20170;-93
2022/12/16 01:29:52;;;;;;;16.10;10.73;;;;;;;2.61;99.50;94092.19;6213349;23;20199;-90
2022/12/16 01:32:33;;;;;;;16.37;11.23;;;;;;;2.66;99.73;94099.31;6203412;23;20181;-91
2022/12/16 01:35:12;;;;;;;16.17;11.47;;;;;;;2.63;99.44;94100.44;6213269;23;20742;-91
2022/12/16 01:37:52;;;;;;;16.23;11.57;;;;;;;2.63;99.32;94109.81;6214513;23;20196;-91
2022/12/16 01:40:52;;;;;;;17.43;11.67;;;;;;;2.63;99.32;94105.50;6214208;23;20252;-91
2022/12/16 01:43:39;;;;;;;13.17;10.00;;;;;;;2.65;99.22;94113.78;6209388;23;20177;-92
2022/12/16 01:49:30;;;;;;;15.70;10.27;;;;;;;2.68;98.99;94103.28;6189873;23;20209;-91
2022/12/16 01:52:22;;;;;;;18.73;12.30;;;;;;;2.64;99.64;94109.63;6232243;23;20165;-92
2022/12/16 01:55:33;;;;;;;16.10;10.70;;;;;;;2.64;99.73;94107.09;6225170;23;20255;-90
2022/12/16 01:58:19;;;;;;;13.33;10.47;;;;;;;2.56;100.00;94104.56;6213539;23;20161;-92
2022/12/16 02:01:07;;;;;;;16.03;11.83;;;;;;;2.52;100.00;94095.69;6213262;23;20158;-91
2022/12/16 02:04:00;;;;;;;17.67;11.17;;;;;;;2.49;100.00;94100.34;6213245;23;20235;-91
2022/12/16 02:06:45;;;;;;;17.43;11.50;;;;;;;2.55;100.00;94099.66;6213466;23;20197;-92
2022/12/16 02:09:29;;;;;;;17.13;12.00;;;;;;;2.43;100.00;94097.47;6200596;23;20250;-92
2022/12/16 02:18:51;;;;;;;17.43;12.07;;;;;;;2.54;100.00;94105.69;6211969;23;20627;-92
2022/12/16 02:22:13;;;;;;;17.80;12.47;;;;;;;2.50;100.00;94114.63;6212754;23;20615;-91
2022/12/16 02:25:33;;;;;;;17.70;13.40;;;;;;;2.54;100.00;94108.22;6191891;23;20232;-91
2022/12/16 02:28:27;;;;;;;19.60;13.40;;;;;;;2.58;99.83;94117.13;6091538;23;20184;-92
2022/12/16 02:31:36;;;;;;;18.87;13.27;;;;;;;2.52;100.00;94128.72;6213192;23;20204;-91
2022/12/16 02:34:42;;;;;;;20.00;13.13;;;;;;;2.38;100.00;94122.56;6202009;23;20651;-91
2022/12/16 02:37:29;;;;;;;21.60;14.77;;;;;;;2.36;100.00;94134.63;6213729;23;20192;-92
2022/12/16 02:40:32;;;;;;;18.07;13.20;;;;;;;2.42;100.00;94140.81;6220176;23;20181;-92
2022/12/16 02:46:26;;;;;;;22.30;14.90;;;;;;;2.33;100.00;94136.69;6207676;23;20259;-92
2022/12/16 03:02:51;;;;;;;22.17;15.53;;;;;;;2.38;100.00;94154.78;6149688;23;20177;-93
2022/12/16 03:18:33;;;;;;;21.00;14.27;;;;;;;1.91;99.23;94164.84;6107693;23;20171;-92
2022/12/16 03:21:31;;;;;;;18.93;14.47;;;;;;;1.94;100.00;94169.56;6118070;23;20179;-92
2022/12/16 03:25:08;;;;;;;17.33;13.53;;;;;;;2.04;100.00;94167.69;6205796;23;20170;-91
2022/12/16 03:28:09;;;;;;;;;;;;;;;;;;;;;
2022/12/16 03:37:19;;;;;;;20.40;15.20;;;;;;;1.72;98.73;94165.94;6105706;23;20175;-91
2022/12/16 03:40:09;;;;;;;20.73;15.23;;;;;;;1.69;99.16;94171.31;6181210;23;20165;-90
